Station Historical Data
Daily Summary for May 7, 2011 Units:  English    Metric   Both
« Previous Day
Next Day »
Daily Weekly Monthly Yearly Custom
  High: Low: Average:
Temperature: 75.6 °F 48.7 °F 62.6 °F
Dew Point: 59.4 °F 46.5 °F 53 °F
Humidity: 94% 55% 72%
Wind Speed: 13.0mph 0.0mph 3.3mph
Wind Gust: 17.0mph - -
Wind- - South
Pressure: 30.02 in 29.83 in -
Precipitation: 0.00 in    
Historical Graphs
 
 
Tabular Data for May 7, 2011
Time Temperature Dew Point Pressure Wind Wind Speed Wind Gust Humidity Rainfall Rate (Hourly) Conditions
00:00 53.5 °F 47.5 °F 29.97 in Calm     80% 0.00 in
00:01 53.6 °F 47.6 °F 29.97 in Calm     80% 0.00 in
00:05 54.1 °F 47.4 °F 29.97 in Calm     78% 0.00 in
00:06 54.2 °F 47.5 °F 29.96 in Calm     78% 0.00 in
00:11 53.9 °F 47.5 °F 29.97 in Calm     79% 0.00 in
00:16 53.6 °F 47.6 °F 29.97 in Calm     80% 0.00 in
00:21 53.4 °F 47.7 °F 29.97 in Calm     81% 0.00 in
00:26 53.2 °F 47.9 °F 29.96 in Calm     82% 0.00 in
00:28 53.1 °F 47.8 °F 29.96 in Calm     82% 0.00 in
00:29 53.1 °F 47.8 °F 29.97 in Calm     82% 0.00 in
00:32 52.9 °F 47.9 °F 29.97 in Calm     83% 0.00 in
00:34 52.7 °F 48.0 °F 29.97 in Calm     84% 0.00 in
00:37 52.7 °F 48.0 °F 29.96 in Calm     84% 0.00 in
00:42 52.3 °F 47.6 °F 29.96 in Calm     84% 0.00 in
00:47 52.5 °F 47.8 °F 29.96 in Calm     84% 0.00 in
00:52 52.7 °F 47.7 °F 29.97 in Calm     83% 0.00 in
00:53 52.7 °F 47.7 °F 29.97 in Calm     83% 0.00 in
00:57 52.8 °F 48.1 °F 29.97 in Calm     84% 0.00 in
00:58 52.8 °F 48.1 °F 29.97 in Calm     84% 0.00 in
00:59 52.8 °F 48.1 °F 29.97 in Calm     84% 0.00 in
01:02 52.6 °F 47.9 °F 29.97 in Calm     84% 0.00 in
01:07 51.8 °F 48.1 °F 29.97 in Calm     87% 0.00 in
01:12 51.3 °F 47.6 °F 29.97 in Calm     87% 0.00 in
01:17 50.8 °F 47.4 °F 29.97 in Calm     88% 0.00 in
01:22 50.8 °F 47.7 °F 29.97 in Calm     89% 0.00 in
01:24 50.6 °F 47.2 °F 29.97 in Calm     88% 0.00 in
01:28 50.3 °F 47.2 °F 29.97 in Calm     89% 0.00 in
01:29 50.2 °F 47.1 °F 29.97 in Calm     89% 0.00 in
01:30 50.1 °F 47.0 °F 29.97 in Calm     89% 0.00 in
01:31 50.1 °F 47.0 °F 29.97 in Calm     89% 0.00 in
01:34 50.0 °F 47.2 °F 29.97 in Calm     90% 0.00 in
01:35 50.1 °F 47.3 °F 29.97 in Calm     90% 0.00 in
01:36 50.1 °F 47.3 °F 29.97 in Calm     90% 0.00 in
01:37 50.2 °F 47.1 °F 29.97 in Calm     89% 0.00 in
01:41 50.5 °F 47.4 °F 29.97 in Calm     89% 0.00 in
01:46 51.4 °F 47.7 °F 29.97 in Calm     87% 0.00 in
01:51 51.1 °F 47.7 °F 29.97 in Calm     88% 0.00 in
01:56 51.0 °F 47.6 °F 29.97 in Calm     88% 0.00 in
01:58 51.1 °F 47.4 °F 29.97 in Calm     87% 0.00 in
02:03 51.1 °F 47.1 °F 29.97 in Calm     86% 0.00 in
02:08 50.7 °F 47.0 °F 29.97 in Calm     87% 0.00 in
02:13 50.5 °F 47.4 °F 29.97 in Calm     89% 0.00 in
02:18 50.6 °F 47.2 °F 29.97 in Calm     88% 0.00 in
02:23 50.6 °F 47.5 °F 29.97 in Calm     89% 0.00 in
02:28 50.6 °F 47.5 °F 29.97 in Calm     89% 0.00 in
02:29 50.7 °F 47.9 °F 29.97 in Calm     90% 0.00 in
02:34 50.8 °F 48.0 °F 29.97 in Calm     90% 0.00 in
02:36 50.8 °F 47.7 °F 29.97 in Calm     89% 0.00 in
02:41 50.7 °F 47.3 °F 29.97 in Calm     88% 0.00 in
02:46 50.4 °F 47.3 °F 29.97 in Calm     89% 0.00 in
02:51 50.1 °F 47.3 °F 29.97 in Calm     90% 0.00 in
02:52 50.0 °F 47.2 °F 29.97 in Calm     90% 0.00 in
02:54 50.0 °F 47.2 °F 29.97 in Calm     90% 0.00 in
02:57 50.1 °F 47.6 °F 29.97 in Calm     91% 0.00 in
02:58 50.2 °F 47.7 °F 29.97 in Calm     91% 0.00 in
03:03 50.2 °F 47.4 °F 29.97 in Calm     90% 0.00 in
03:04 50.2 °F 47.4 °F 29.97 in Calm     90% 0.00 in
03:09 50.3 °F 47.5 °F 29.97 in Calm     90% 0.00 in
03:14 50.3 °F 47.5 °F 29.97 in Calm     90% 0.00 in
03:19 50.5 °F 47.7 °F 29.96 in Calm     90% 0.00 in
03:24 50.5 °F 47.4 °F 29.96 in Calm     89% 0.00 in
03:29 50.1 °F 47.0 °F 29.97 in Calm     89% 0.00 in
03:31 49.9 °F 46.8 °F 29.97 in Calm     89% 0.00 in
03:33 49.9 °F 47.1 °F 29.97 in Calm     90% 0.00 in
03:38 50.3 °F 46.9 °F 29.97 in Calm     88% 0.00 in
03:43 50.1 °F 47.0 °F 29.97 in Calm     89% 0.00 in
03:48 50.3 °F 47.2 °F 29.96 in ESE 1.0 mph 1.0 mph 89% 0.00 in
03:53 50.6 °F 47.5 °F 29.97 in Calm   1.0 mph 89% 0.00 in
03:54 50.6 °F 47.5 °F 29.97 in Calm   1.0 mph 89% 0.00 in
03:55 50.7 °F 47.6 °F 29.97 in Calm   1.0 mph 89% 0.00 in
03:58 50.8 °F 47.4 °F 29.97 in Calm     88% 0.00 in
03:59 50.8 °F 47.4 °F 29.97 in Calm     88% 0.00 in
04:04 50.8 °F 47.4 °F 29.97 in Calm     88% 0.00 in
04:06 50.8 °F 47.4 °F 29.96 in Calm   1.0 mph 88% 0.00 in
04:09 50.8 °F 47.4 °F 29.96 in Calm   1.0 mph 88% 0.00 in
04:14 50.8 °F 47.4 °F 29.96 in Calm     88% 0.00 in
04:19 50.9 °F 47.8 °F 29.96 in ESE 1.0 mph 1.0 mph 89% 0.00 in
04:24 51.3 °F 47.9 °F 29.96 in Calm   1.0 mph 88% 0.00 in
04:29 51.0 °F 47.3 °F 29.96 in Calm     87% 0.00 in
04:30 51.0 °F 47.3 °F 29.96 in Calm     87% 0.00 in
04:35 50.8 °F 47.7 °F 29.96 in ENE 1.0 mph 1.0 mph 89% 0.00 in
04:36 50.9 °F 47.8 °F 29.96 in Calm   1.0 mph 89% 0.00 in
04:40 51.0 °F 47.6 °F 29.96 in Calm   1.0 mph 88% 0.00 in
04:42 50.9 °F 47.5 °F 29.97 in Calm     88% 0.00 in
04:45 50.8 °F 47.4 °F 29.97 in Calm   1.0 mph 88% 0.00 in
04:48 50.8 °F 47.7 °F 29.97 in Calm     89% 0.00 in
04:53 50.9 °F 47.8 °F 29.96 in Calm     89% 0.00 in
04:56 50.9 °F 47.8 °F 29.96 in Calm     89% 0.00 in
04:58 50.8 °F 47.4 °F 29.96 in Calm     88% 0.00 in
05:03 50.5 °F 47.1 °F 29.96 in Calm     88% 0.00 in
05:04 50.5 °F 47.1 °F 29.96 in Calm     88% 0.00 in
05:08 50.1 °F 47.3 °F 29.96 in Calm     90% 0.00 in
05:14 50.4 °F 47.6 °F 29.96 in East 1.0 mph 2.0 mph 90% 0.00 in
05:19 50.4 °F 47.3 °F 29.96 in East 1.0 mph 1.0 mph 89% 0.00 in
05:24 50.2 °F 47.4 °F 29.96 in East 1.0 mph 1.0 mph 90% 0.00 in
05:30 50.0 °F 47.2 °F 29.95 in Calm   1.0 mph 90% 0.00 in
05:32 49.8 °F 47.0 °F 29.96 in Calm   1.0 mph 90% 0.00 in
05:35 49.6 °F 46.8 °F 29.95 in ESE 1.0 mph 1.0 mph 90% 0.00 in
05:36 49.5 °F 46.7 °F 29.95 in East 1.0 mph 1.0 mph 90% 0.00 in
05:38 49.4 °F 46.9 °F 29.95 in East 1.0 mph 1.0 mph 91% 0.00 in
05:43 49.2 °F 46.7 °F 29.95 in East 1.0 mph 1.0 mph 91% 0.00 in
05:48 49.1 °F 46.6 °F 29.96 in Calm   1.0 mph 91% 0.00 in
05:49 49.1 °F 46.6 °F 29.96 in Calm   1.0 mph 91% 0.00 in
05:54 49.1 °F 46.9 °F 29.95 in East 1.0 mph 1.0 mph 92% 0.00 in
05:59 49.1 °F 46.9 °F 29.95 in East 1.0 mph 1.0 mph 92% 0.00 in
06:04 49.1 °F 46.9 °F 29.95 in East 1.0 mph 1.0 mph 92% 0.00 in
06:09 49.2 °F 47.0 °F 29.95 in Calm   1.0 mph 92% 0.00 in
06:15 49.3 °F 47.1 °F 29.95 in Calm   1.0 mph 92% 0.00 in
06:19 49.4 °F 47.2 °F 29.95 in Calm   1.0 mph 92% 0.00 in
06:25 49.2 °F 47.0 °F 29.95 in Calm     92% 0.00 in
06:26 49.2 °F 47.0 °F 29.95 in Calm     92% 0.00 in
06:30 49.0 °F 46.8 °F 29.95 in Calm   1.0 mph 92% 0.00 in
06:31 48.9 °F 46.7 °F 29.95 in Calm     92% 0.00 in
06:34 48.8 °F 46.6 °F 29.95 in Calm     92% 0.00 in
06:35 48.7 °F 46.5 °F 29.95 in Calm     92% 0.00 in
06:36 48.7 °F 46.8 °F 29.95 in Calm     93% 0.00 in
06:41 48.7 °F 46.8 °F 29.95 in East 1.0 mph 2.0 mph 93% 0.00 in
06:46 49.0 °F 47.3 °F 29.95 in ESE 2.0 mph 2.0 mph 94% 0.00 in
06:51 49.0 °F 47.1 °F 29.95 in East 2.0 mph 2.0 mph 93% 0.00 in
06:52 49.1 °F 47.2 °F 29.95 in ESE 2.0 mph 2.0 mph 93% 0.00 in
06:56 49.1 °F 47.2 °F 29.95 in ESE 2.0 mph 3.0 mph 93% 0.00 in
06:57 49.1 °F 47.2 °F 29.95 in ESE 3.0 mph 3.0 mph 93% 0.00 in
06:58 49.1 °F 47.2 °F 29.95 in East 2.0 mph 3.0 mph 93% 0.00 in
07:02 49.1 °F 47.2 °F 29.95 in ESE 3.0 mph 4.0 mph 93% 0.00 in
07:07 49.3 °F 47.4 °F 29.95 in ESE 2.0 mph 5.0 mph 93% 0.00 in
07:08 49.3 °F 47.4 °F 29.95 in ESE 3.0 mph 5.0 mph 93% 0.00 in
07:13 49.3 °F 47.4 °F 29.95 in ESE 4.0 mph 4.0 mph 93% 0.00 in
07:18 49.5 °F 47.6 °F 29.95 in ESE 4.0 mph 5.0 mph 93% 0.00 in
07:23 49.7 °F 47.8 °F 29.95 in ESE 5.0 mph 5.0 mph 93% 0.00 in
07:28 50.2 °F 48.3 °F 29.95 in ESE 4.0 mph 7.0 mph 93% 0.00 in
07:29 50.4 °F 48.2 °F 29.95 in SE 4.0 mph 7.0 mph 92% 0.00 in
07:33 50.6 °F 48.4 °F 29.95 in ESE 6.0 mph 6.0 mph 92% 0.00 in
07:35 50.8 °F 48.6 °F 29.95 in ESE 5.0 mph 6.0 mph 92% 0.00 in
07:36 50.8 °F 48.3 °F 29.95 in ESE 6.0 mph 7.0 mph 91% 0.00 in
07:41 51.3 °F 48.5 °F 29.95 in East 4.0 mph 8.0 mph 90% 0.00 in
07:46 51.5 °F 48.7 °F 29.95 in ESE 5.0 mph 6.0 mph 90% 0.00 in
07:51 51.8 °F 49.0 °F 29.95 in ESE 8.0 mph 8.0 mph 90% 0.00 in
07:52 51.8 °F 49.0 °F 29.95 in ESE 6.0 mph 8.0 mph 90% 0.00 in
07:54 52.0 °F 48.9 °F 29.95 in East 4.0 mph 8.0 mph 89% 0.00 in
07:56 52.1 °F 49.0 °F 29.95 in ESE 6.0 mph 7.0 mph 89% 0.00 in
07:57 52.2 °F 49.1 °F 29.95 in ESE 4.0 mph 7.0 mph 89% 0.00 in
07:59 52.4 °F 49.3 °F 29.95 in ESE 7.0 mph 7.0 mph 89% 0.00 in
08:04 52.8 °F 49.3 °F 29.95 in ESE 6.0 mph 7.0 mph 88% 0.00 in
08:09 53.2 °F 49.7 °F 29.95 in ESE 6.0 mph 8.0 mph 88% 0.00 in
08:10 53.2 °F 49.7 °F 29.95 in ESE 6.0 mph 8.0 mph 88% 0.00 in
08:15 53.4 °F 49.9 °F 29.95 in ESE 6.0 mph 8.0 mph 88% 0.00 in
08:20 53.7 °F 50.2 °F 29.95 in SE 6.0 mph 7.0 mph 88% 0.00 in
08:25 54.1 °F 50.6 °F 29.95 in ESE 5.0 mph 7.0 mph 88% 0.00 in
08:26 54.2 °F 50.4 °F 29.95 in ESE 6.0 mph 7.0 mph 87% 0.00 in
08:31 54.6 °F 50.8 °F 29.95 in ESE 5.0 mph 6.0 mph 87% 0.00 in
08:33 54.8 °F 51.0 °F 29.95 in East 4.0 mph 7.0 mph 87% 0.00 in
08:38 55.0 °F 50.9 °F 29.95 in ESE 5.0 mph 6.0 mph 86% 0.00 in
08:43 55.4 °F 51.0 °F 29.95 in ESE 4.0 mph 8.0 mph 85% 0.00 in
08:48 56.1 °F 51.3 °F 29.95 in ESE 7.0 mph 8.0 mph 84% 0.00 in
08:53 56.6 °F 51.8 °F 29.95 in SE 4.0 mph 7.0 mph 84% 0.00 in
08:56 57.0 °F 52.2 °F 29.95 in SE 3.0 mph 4.0 mph 84% 0.00 in
08:57 57.2 °F 51.8 °F 29.95 in SSE 3.0 mph 6.0 mph 82% 0.00 in
08:58 57.4 °F 52.0 °F 29.95 in South 3.0 mph 6.0 mph 82% 0.00 in
09:03 58.3 °F 52.2 °F 29.95 in SSE 5.0 mph 5.0 mph 80% 0.00 in
09:04 58.4 °F 52.3 °F 29.95 in SSE 5.0 mph 5.0 mph 80% 0.00 in
09:09 58.9 °F 52.8 °F 29.95 in SE 4.0 mph 5.0 mph 80% 0.00 in
09:14 59.5 °F 53.3 °F 29.95 in SSE 4.0 mph 7.0 mph 80% 0.00 in
09:19 60.5 °F 53.3 °F 29.95 in South 5.0 mph 6.0 mph 77% 0.00 in
09:24 61.4 °F 53.0 °F 29.95 in SSE 4.0 mph 7.0 mph 74% 0.00 in
09:29 62.0 °F 53.6 °F 29.95 in SSE 6.0 mph 9.0 mph 74% 0.00 in
09:30 62.1 °F 53.3 °F 29.95 in SE 6.0 mph 9.0 mph 73% 0.00 in
09:35 62.5 °F 53.4 °F 29.95 in SSE 5.0 mph 8.0 mph 72% 0.00 in
09:40 63.0 °F 52.3 °F 29.95 in South 5.0 mph 8.0 mph 68% 0.00 in
09:45 63.5 °F 53.5 °F 29.96 in SW 4.0 mph 6.0 mph 70% 0.00 in
09:50 64.0 °F 53.2 °F 29.97 in SSE 5.0 mph 9.0 mph 68% 0.00 in
09:55 64.5 °F 52.9 °F 29.98 in SE 5.0 mph 5.0 mph 66% 0.00 in
09:57 64.6 °F 53.8 °F 29.98 in SE 4.0 mph 6.0 mph 68% 0.00 in
09:58 64.7 °F 53.9 °F 29.98 in SSW 3.0 mph 6.0 mph 68% 0.00 in
10:00 64.9 °F 52.9 °F 29.98 in SSW 5.0 mph 7.0 mph 65% 0.00 in
10:05 65.6 °F 54.8 °F 29.98 in SSW 5.0 mph 7.0 mph 68% 0.00 in
10:10 65.8 °F 53.7 °F 29.98 in SE 6.0 mph 7.0 mph 65% 0.00 in
10:11 65.8 °F 53.3 °F 29.98 in SSW 5.0 mph 7.0 mph 64% 0.00 in
10:16 66.2 °F 52.4 °F 29.97 in SSW 4.0 mph 9.0 mph 61% 0.00 in
10:21 66.7 °F 54.2 °F 29.98 in South 7.0 mph 8.0 mph 64% 0.00 in
10:26 67.2 °F 52.4 °F 29.99 in SSW 5.0 mph 10.0 mph 59% 0.00 in
10:27 67.2 °F 52.4 °F 29.99 in SSE 4.0 mph 10.0 mph 59% 0.00 in
10:32 67.9 °F 53.5 °F 29.98 in SSW 4.0 mph 5.0 mph 60% 0.00 in
10:33 68.0 °F 53.6 °F 29.98 in SSE 4.0 mph 7.0 mph 60% 0.00 in
10:37 68.3 °F 52.5 °F 29.98 in South 5.0 mph 8.0 mph 57% 0.00 in
10:42 68.5 °F 53.2 °F 29.99 in SSW 5.0 mph 7.0 mph 58% 0.00 in
10:43 68.5 °F 52.2 °F 29.99 in South 6.0 mph 8.0 mph 56% 0.00 in
10:48 68.4 °F 53.5 °F 29.99 in SSE 3.0 mph 8.0 mph 59% 0.00 in
10:49 68.4 °F 53.5 °F 29.99 in SSE 6.0 mph 8.0 mph 59% 0.00 in
10:54 68.3 °F 52.0 °F 30.00 in SW 6.0 mph 9.0 mph 56% 0.00 in
10:56 68.2 °F 52.9 °F 29.99 in South 3.0 mph 8.0 mph 58% 0.00 in
10:59 68.1 °F 51.8 °F 29.99 in South 6.0 mph 13.0 mph 56% 0.00 in
11:02 68.2 °F 52.9 °F 29.99 in South 5.0 mph 9.0 mph 58% 0.00 in
11:07 68.4 °F 53.1 °F 29.99 in SE 5.0 mph 8.0 mph 58% 0.00 in
11:08 68.4 °F 53.1 °F 29.99 in South 6.0 mph 8.0 mph 58% 0.00 in
11:13 68.9 °F 53.5 °F 29.99 in SSW 5.0 mph 9.0 mph 58% 0.00 in
11:18 69.1 °F 54.2 °F 30.00 in South 5.0 mph 6.0 mph 59% 0.00 in
11:19 69.3 °F 53.9 °F 30.00 in SW 4.0 mph 8.0 mph 58% 0.00 in
11:23 69.5 °F 53.6 °F 30.00 in SSE 6.0 mph 7.0 mph 57% 0.00 in
11:28 69.1 °F 52.8 °F 30.01 in WSW 5.0 mph 8.0 mph 56% 0.00 in
11:30 68.9 °F 53.1 °F 30.01 in SW 5.0 mph 8.0 mph 57% 0.00 in
11:32 68.8 °F 53.0 °F 30.01 in WSW 5.0 mph 7.0 mph 57% 0.00 in
11:35 68.9 °F 52.6 °F 30.01 in SSE 4.0 mph 6.0 mph 56% 0.00 in
11:36 68.9 °F 53.5 °F 30.01 in SW 3.0 mph 6.0 mph 58% 0.00 in
11:37 69.0 °F 53.6 °F 30.01 in West 2.0 mph 5.0 mph 58% 0.00 in
11:42 69.1 °F 53.2 °F 30.01 in SSW 4.0 mph 8.0 mph 57% 0.00 in
11:47 69.0 °F 53.6 °F 30.01 in WSW 4.0 mph 7.0 mph 58% 0.00 in
11:52 69.1 °F 54.2 °F 30.01 in SSW 4.0 mph 6.0 mph 59% 0.00 in
11:53 69.1 °F 54.2 °F 30.01 in SW 7.0 mph 7.0 mph 59% 0.00 in
11:54 69.1 °F 52.8 °F 30.01 in SSW 5.0 mph 7.0 mph 56% 0.00 in
11:58 68.8 °F 52.5 °F 30.01 in SW 2.0 mph 7.0 mph 56% 0.00 in
12:00 68.9 °F 54.0 °F 30.01 in SW 7.0 mph 7.0 mph 59% 0.00 in
12:03 68.7 °F 53.3 °F 30.01 in SSW 2.0 mph 7.0 mph 58% 0.00 in
12:05 68.7 °F 53.3 °F 30.01 in SW 6.0 mph 6.0 mph 58% 0.00 in
12:08 68.8 °F 54.4 °F 30.01 in South 3.0 mph 5.0 mph 60% 0.00 in
12:11 68.9 °F 54.0 °F 30.01 in SSW 3.0 mph 4.0 mph 59% 0.00 in
12:17 69.0 °F 55.0 °F 30.00 in South 3.0 mph 5.0 mph 61% 0.00 in
12:22 69.0 °F 54.1 °F 30.00 in SW 5.0 mph 6.0 mph 59% 0.00 in
12:27 69.0 °F 53.6 °F 30.00 in South 6.0 mph 6.0 mph 58% 0.00 in
12:28 69.0 °F 53.6 °F 30.00 in SSW 3.0 mph 6.0 mph 58% 0.00 in
12:32 69.2 °F 53.3 °F 30.00 in South 3.0 mph 8.0 mph 57% 0.00 in
12:34 69.2 °F 53.8 °F 30.00 in WSW 5.0 mph 8.0 mph 58% 0.00 in
12:35 69.3 °F 54.4 °F 30.00 in WSW 6.0 mph 8.0 mph 59% 0.00 in
12:37 69.4 °F 54.5 °F 30.01 in SW 4.0 mph 6.0 mph 59% 0.00 in
12:41 69.7 °F 53.3 °F 30.01 in SW 2.0 mph 7.0 mph 56% 0.00 in
12:46 70.0 °F 55.5 °F 30.01 in SW 5.0 mph 9.0 mph 60% 0.00 in
12:52 70.5 °F 54.5 °F 30.00 in SSE 2.0 mph 6.0 mph 57% 0.00 in
12:56 70.6 °F 54.2 °F 30.00 in South 3.0 mph 6.0 mph 56% 0.00 in
12:57 70.7 °F 55.2 °F 30.00 in SW 3.0 mph 6.0 mph 58% 0.00 in
12:58 70.7 °F 55.2 °F 30.00 in SSE 2.0 mph 5.0 mph 58% 0.00 in
13:01 70.8 °F 55.8 °F 30.00 in SSW 6.0 mph 6.0 mph 59% 0.00 in
13:06 70.5 °F 54.5 °F 30.01 in WSW 7.0 mph 9.0 mph 57% 0.00 in
13:11 70.1 °F 54.7 °F 30.01 in SW 4.0 mph 7.0 mph 58% 0.00 in
13:16 70.4 °F 56.8 °F 30.01 in SW 4.0 mph 6.0 mph 62% 0.00 in
13:22 70.5 °F 55.5 °F 30.01 in WSW 4.0 mph 7.0 mph 59% 0.00 in
13:27 70.2 °F 54.3 °F 30.02 in SW 7.0 mph 8.0 mph 57% 0.00 in
13:28 70.1 °F 54.2 °F 30.02 in SW 6.0 mph 8.0 mph 57% 0.00 in
13:29 70.1 °F 54.7 °F 30.02 in WSW 6.0 mph 8.0 mph 58% 0.00 in
13:33 70.1 °F 56.5 °F 30.02 in WSW 4.0 mph 6.0 mph 62% 0.00 in
13:34 70.1 °F 55.1 °F 30.02 in SW 4.0 mph 6.0 mph 59% 0.00 in
13:37 70.0 °F 55.5 °F 30.02 in SW 6.0 mph 9.0 mph 60% 0.00 in
13:39 70.0 °F 55.0 °F 30.02 in West 4.0 mph 8.0 mph 59% 0.00 in
13:43 70.0 °F 56.0 °F 30.02 in West 7.0 mph 12.0 mph 61% 0.00 in
13:48 70.0 °F 56.0 °F 30.01 in SSW 3.0 mph 6.0 mph 61% 0.00 in
13:57 69.6 °F 56.5 °F 30.02 in SW 5.0 mph 5.0 mph 63% 0.00 in
13:58 69.5 °F 56.4 °F 30.01 in WSW 5.0 mph 5.0 mph 63% 0.00 in
14:02 69.3 °F 56.2 °F 30.01 in SW 4.0 mph 10.0 mph 63% 0.00 in
14:03 69.2 °F 56.1 °F 30.01 in SW 6.0 mph 10.0 mph 63% 0.00 in
14:08 69.1 °F 56.4 °F 30.01 in WSW 7.0 mph 7.0 mph 64% 0.00 in
14:09 69.1 °F 56.4 °F 30.01 in SW 4.0 mph 7.0 mph 64% 0.00 in
14:14 69.3 °F 57.0 °F 30.01 in SW 6.0 mph 6.0 mph 65% 0.00 in
14:19 69.5 °F 57.7 °F 30.00 in SW 4.0 mph 6.0 mph 66% 0.00 in
14:24 69.6 °F 56.9 °F 30.01 in West 2.0 mph 5.0 mph 64% 0.00 in
14:29 69.6 °F 56.5 °F 29.99 in SW 4.0 mph 7.0 mph 63% 0.00 in
14:30 69.6 °F 57.3 °F 29.99 in South 4.0 mph 7.0 mph 65% 0.00 in
14:34 69.7 °F 56.6 °F 29.97 in South 6.0 mph 8.0 mph 63% 0.00 in
14:35 69.7 °F 57.0 °F 29.97 in SSE 3.0 mph 8.0 mph 64% 0.00 in
14:36 69.7 °F 57.4 °F 29.97 in SSW 3.0 mph 8.0 mph 65% 0.00 in
14:42 69.7 °F 56.6 °F 29.98 in SW 5.0 mph 5.0 mph 63% 0.00 in
14:47 69.8 °F 58.4 °F 29.97 in SW 2.0 mph 6.0 mph 67% 0.00 in
14:52 69.9 °F 57.2 °F 29.97 in SSE 7.0 mph 8.0 mph 64% 0.00 in
14:57 69.9 °F 56.8 °F 29.96 in SSW 7.0 mph 7.0 mph 63% 0.00 in
14:58 69.9 °F 56.3 °F 29.96 in SSE 8.0 mph 8.0 mph 62% 0.00 in
15:03 70.1 °F 56.9 °F 29.95 in South 6.0 mph 9.0 mph 63% 0.00 in
15:07 70.3 °F 57.1 °F 29.94 in South 3.0 mph 8.0 mph 63% 0.00 in
15:08 70.3 °F 56.7 °F 29.94 in South 7.0 mph 8.0 mph 62% 0.00 in
15:13 70.5 °F 56.9 °F 29.94 in SE 5.0 mph 6.0 mph 62% 0.00 in
15:18 70.7 °F 57.1 °F 29.93 in SSE 3.0 mph 8.0 mph 62% 0.00 in
15:23 70.8 °F 56.2 °F 29.93 in SSE 6.0 mph 8.0 mph 60% 0.00 in
15:28 71.0 °F 56.9 °F 29.92 in SSW 8.0 mph 9.0 mph 61% 0.00 in
15:32 71.1 °F 57.0 °F 29.91 in SSE 7.0 mph 9.0 mph 61% 0.00 in
15:33 71.1 °F 56.5 °F 29.91 in SSE 6.0 mph 9.0 mph 60% 0.00 in
15:34 71.2 °F 57.1 °F 29.91 in WSW 6.0 mph 9.0 mph 61% 0.00 in
15:37 71.2 °F 56.6 °F 29.91 in South 6.0 mph 11.0 mph 60% 0.00 in
15:39 71.2 °F 57.1 °F 29.91 in SSW 3.0 mph 11.0 mph 61% 0.00 in
15:44 71.6 °F 56.5 °F 29.91 in South 7.0 mph 11.0 mph 59% 0.00 in
15:49 71.9 °F 56.8 °F 29.90 in SE 7.0 mph 11.0 mph 59% 0.00 in
15:51 71.9 °F 56.8 °F 29.90 in SSE 7.0 mph 14.0 mph 59% 0.00 in
15:54 71.9 °F 56.8 °F 29.89 in SSE 10.0 mph 10.0 mph 59% 0.00 in
15:58 71.8 °F 56.2 °F 29.89 in ESE 10.0 mph 10.0 mph 58% 0.00 in
15:59 71.8 °F 57.6 °F 29.89 in SSE 5.0 mph 10.0 mph 61% 0.00 in
16:04 72.0 °F 57.4 °F 29.88 in SE 4.0 mph 8.0 mph 60% 0.00 in
16:09 72.6 °F 58.4 °F 29.88 in SSE 8.0 mph 11.0 mph 61% 0.00 in
16:14 72.8 °F 57.2 °F 29.87 in SE 6.0 mph 10.0 mph 58% 0.00 in
16:19 72.7 °F 56.6 °F 29.86 in SE 8.0 mph 13.0 mph 57% 0.00 in
16:24 72.9 °F 59.1 °F 29.86 in SE 4.0 mph 11.0 mph 62% 0.00 in
16:25 73.0 °F 57.8 °F 29.86 in SE 7.0 mph 11.0 mph 59% 0.00 in
16:30 73.1 °F 57.9 °F 29.86 in SSE 6.0 mph 15.0 mph 59% 0.00 in
16:31 73.1 °F 57.5 °F 29.86 in ESE 13.0 mph 15.0 mph 58% 0.00 in
16:36 73.1 °F 57.5 °F 29.87 in SE 12.0 mph 13.0 mph 58% 0.00 in
16:37 73.1 °F 57.0 °F 29.87 in SSE 8.0 mph 13.0 mph 57% 0.00 in
16:41 73.2 °F 58.0 °F 29.87 in South 5.0 mph 13.0 mph 59% 0.00 in
16:43 73.5 °F 58.3 °F 29.87 in SE 8.0 mph 8.0 mph 59% 0.00 in
16:46 73.7 °F 58.0 °F 29.87 in SSW 7.0 mph 10.0 mph 58% 0.00 in
16:51 74.2 °F 59.4 °F 29.87 in SSE 3.0 mph 12.0 mph 60% 0.00 in
16:55 74.2 °F 58.0 °F 29.87 in SSW 9.0 mph 13.0 mph 57% 0.00 in
16:56 74.2 °F 59.0 °F 29.87 in SSW 6.0 mph 13.0 mph 59% 0.00 in
17:01 74.6 °F 57.4 °F 29.87 in South 11.0 mph 13.0 mph 55% 0.00 in
17:06 74.6 °F 57.9 °F 29.87 in SSW 9.0 mph 14.0 mph 56% 0.00 in
17:12 74.6 °F 58.4 °F 29.87 in SE 11.0 mph 12.0 mph 57% 0.00 in
17:13 74.6 °F 58.4 °F 29.87 in SE 11.0 mph 12.0 mph 57% 0.00 in
17:18 74.8 °F 57.6 °F 29.86 in SW 9.0 mph 12.0 mph 55% 0.00 in
17:23 74.9 °F 58.7 °F 29.86 in SSW 5.0 mph 11.0 mph 57% 0.00 in
17:28 75.0 °F 58.3 °F 29.86 in South 9.0 mph 14.0 mph 56% 0.00 in
17:29 75.0 °F 58.3 °F 29.86 in SE 11.0 mph 14.0 mph 56% 0.00 in
17:31 74.9 °F 57.7 °F 29.86 in SSW 12.0 mph 16.0 mph 55% 0.00 in
17:34 74.8 °F 57.6 °F 29.86 in SSW 7.0 mph 14.0 mph 55% 0.00 in
17:36 74.8 °F 58.1 °F 29.85 in SSW 12.0 mph 16.0 mph 56% 0.00 in
17:37 74.8 °F 58.1 °F 29.86 in South 8.0 mph 16.0 mph 56% 0.00 in
17:42 74.7 °F 58.0 °F 29.86 in South 5.0 mph 17.0 mph 56% 0.00 in
17:47 74.9 °F 58.2 °F 29.86 in SW 12.0 mph 12.0 mph 56% 0.00 in
17:52 74.8 °F 58.1 °F 29.86 in SSW 7.0 mph 14.0 mph 56% 0.00 in
17:53 74.8 °F 58.1 °F 29.86 in SSW 8.0 mph 14.0 mph 56% 0.00 in
17:57 75.0 °F 58.8 °F 29.86 in South 6.0 mph 11.0 mph 57% 0.00 in
17:58 75.0 °F 59.2 °F 29.86 in SSE 4.0 mph 11.0 mph 58% 0.00 in
17:59 75.1 °F 58.3 °F 29.86 in SSE 3.0 mph 11.0 mph 56% 0.00 in
18:04 75.1 °F 58.3 °F 29.86 in SSW 8.0 mph 14.0 mph 56% 0.00 in
18:09 75.3 °F 59.0 °F 29.86 in South 9.0 mph 10.0 mph 57% 0.00 in
18:14 75.2 °F 58.9 °F 29.87 in SSW 9.0 mph 13.0 mph 57% 0.00 in
18:15 75.2 °F 58.4 °F 29.87 in South 8.0 mph 13.0 mph 56% 0.00 in
18:16 75.1 °F 59.3 °F 29.86 in South 7.0 mph 13.0 mph 58% 0.00 in
18:21 74.7 °F 59.0 °F 29.86 in SSW 6.0 mph 13.0 mph 58% 0.00 in
18:26 75.0 °F 59.2 °F 29.86 in South 7.0 mph 8.0 mph 58% 0.00 in
18:27 75.1 °F 59.3 °F 29.86 in SW 7.0 mph 8.0 mph 58% 0.00 in
18:31 75.4 °F 59.1 °F 29.85 in SW 3.0 mph 11.0 mph 57% 0.00 in
18:32 75.4 °F 59.1 °F 29.85 in SSE 3.0 mph 11.0 mph 57% 0.00 in
18:33 75.5 °F 59.2 °F 29.86 in SW 7.0 mph 11.0 mph 57% 0.00 in
18:34 75.5 °F 58.2 °F 29.85 in South 6.0 mph 11.0 mph 55% 0.00 in
18:36 75.6 °F 58.8 °F 29.85 in South 6.0 mph 11.0 mph 56% 0.00 in
18:41 75.5 °F 58.2 °F 29.85 in SSW 6.0 mph 12.0 mph 55% 0.00 in
18:47 75.6 °F 59.3 °F 29.85 in South 5.0 mph 10.0 mph 57% 0.00 in
18:52 75.6 °F 58.8 °F 29.85 in SSW 3.0 mph 11.0 mph 56% 0.00 in
18:57 75.6 °F 58.3 °F 29.85 in WSW 4.0 mph 10.0 mph 55% 0.00 in
18:58 75.6 °F 58.8 °F 29.85 in SW 4.0 mph 10.0 mph 56% 0.00 in
19:04 75.5 °F 58.7 °F 29.85 in SSW 3.0 mph 11.0 mph 56% 0.00 in
19:09 75.3 °F 58.0 °F 29.85 in South 4.0 mph 13.0 mph 55% 0.00 in
19:14 75.1 °F 57.8 °F 29.85 in SSW 6.0 mph 9.0 mph 55% 0.00 in
19:19 74.9 °F 57.7 °F 29.85 in SSW 6.0 mph 13.0 mph 55% 0.00 in
19:24 74.8 °F 58.1 °F 29.84 in SE 6.0 mph 9.0 mph 56% 0.00 in
19:29 74.7 °F 58.0 °F 29.84 in SSW 9.0 mph 9.0 mph 56% 0.00 in
19:30 74.7 °F 58.5 °F 29.84 in SSW 3.0 mph 9.0 mph 57% 0.00 in
19:36 74.5 °F 57.8 °F 29.84 in South 4.0 mph 10.0 mph 56% 0.00 in
19:37 74.5 °F 58.3 °F 29.84 in SSE 4.0 mph 8.0 mph 57% 0.00 in
19:42 74.3 °F 58.1 °F 29.84 in SW 6.0 mph 8.0 mph 57% 0.00 in
19:47 74.0 °F 57.8 °F 29.84 in SSW 6.0 mph 10.0 mph 57% 0.00 in
19:52 73.8 °F 58.1 °F 29.84 in SE 3.0 mph 6.0 mph 58% 0.00 in
19:54 73.7 °F 57.5 °F 29.84 in South 6.0 mph 10.0 mph 57% 0.00 in
19:57 73.6 °F 57.9 °F 29.84 in SSW 4.0 mph 10.0 mph 58% 0.00 in
19:59 73.5 °F 58.3 °F 29.84 in SSW 5.0 mph 6.0 mph 59% 0.00 in
20:00 73.4 °F 57.7 °F 29.84 in SSW 8.0 mph 9.0 mph 58% 0.00 in
20:04 73.2 °F 57.5 °F 29.84 in SSW 7.0 mph 9.0 mph 58% 0.00 in
20:06 73.2 °F 57.5 °F 29.84 in South 6.0 mph 9.0 mph 58% 0.00 in
20:09 73.0 °F 57.8 °F 29.84 in South 3.0 mph 9.0 mph 59% 0.00 in
20:14 72.5 °F 57.8 °F 29.84 in SSW 4.0 mph 5.0 mph 60% 0.00 in
20:19 72.1 °F 57.9 °F 29.84 in South 5.0 mph 6.0 mph 61% 0.00 in
20:24 71.7 °F 58.0 °F 29.84 in SSE 4.0 mph 6.0 mph 62% 0.00 in
20:33 70.9 °F 57.7 °F 29.84 in SE 4.0 mph 6.0 mph 63% 0.00 in
20:34 70.7 °F 57.9 °F 29.84 in SSE 5.0 mph 6.0 mph 64% 0.00 in
20:35 70.6 °F 57.8 °F 29.84 in South 3.0 mph 6.0 mph 64% 0.00 in
20:39 70.2 °F 57.5 °F 29.84 in SSE 4.0 mph 8.0 mph 64% 0.00 in
20:44 69.9 °F 57.6 °F 29.84 in SSE 5.0 mph 5.0 mph 65% 0.00 in
20:49 69.5 °F 57.2 °F 29.84 in SSE 5.0 mph 5.0 mph 65% 0.00 in
20:54 69.1 °F 57.3 °F 29.84 in South 3.0 mph 5.0 mph 66% 0.00 in
20:55 69.1 °F 57.3 °F 29.84 in SSE 2.0 mph 5.0 mph 66% 0.00 in
20:57 69.0 °F 57.2 °F 29.83 in South 5.0 mph 7.0 mph 66% 0.00 in
21:00 69.0 °F 57.2 °F 29.84 in South 2.0 mph 7.0 mph 66% 0.00 in
21:05 68.9 °F 57.1 °F 29.84 in SSW 4.0 mph 4.0 mph 66% 0.00 in
21:06 68.9 °F 57.1 °F 29.84 in SSW 4.0 mph 4.0 mph 66% 0.00 in
21:11 68.9 °F 57.1 °F 29.84 in SSW 4.0 mph 4.0 mph 66% 0.00 in
21:16 68.8 °F 57.0 °F 29.84 in SSW 1.0 mph 3.0 mph 66% 0.00 in
21:21 68.6 °F 57.2 °F 29.84 in SSE 2.0 mph 4.0 mph 67% 0.00 in
21:26 68.3 °F 56.9 °F 29.84 in SSE 2.0 mph 4.0 mph 67% 0.00 in
21:31 68.1 °F 57.2 °F 29.84 in SSE 2.0 mph 6.0 mph 68% 0.00 in
21:32 68.1 °F 57.2 °F 29.84 in SSW 4.0 mph 4.0 mph 68% 0.00 in
21:36 67.7 °F 56.8 °F 29.84 in SSE 2.0 mph 2.0 mph 68% 0.00 in
21:38 67.5 °F 57.0 °F 29.84 in SSE 2.0 mph 2.0 mph 69% 0.00 in
21:41 67.3 °F 56.8 °F 29.84 in SSW 2.0 mph 3.0 mph 69% 0.00 in
21:46 67.2 °F 56.7 °F 29.84 in SSE 1.0 mph 2.0 mph 69% 0.00 in
21:51 67.1 °F 57.0 °F 29.84 in SE 1.0 mph 1.0 mph 70% 0.00 in
21:52 67.0 °F 56.9 °F 29.84 in SE 1.0 mph 1.0 mph 70% 0.00 in
21:54 66.9 °F 56.8 °F 29.85 in Calm   1.0 mph 70% 0.00 in
21:57 66.8 °F 56.7 °F 29.85 in Calm     70% 0.00 in
22:00 66.7 °F 56.6 °F 29.84 in Calm     70% 0.00 in
22:02 66.6 °F 56.9 °F 29.84 in Calm   1.0 mph 71% 0.00 in
22:07 66.3 °F 56.6 °F 29.84 in Calm   1.0 mph 71% 0.00 in
22:12 66.0 °F 56.7 °F 29.85 in SE 1.0 mph 1.0 mph 72% 0.00 in
22:17 65.9 °F 56.6 °F 29.85 in Calm   1.0 mph 72% 0.00 in
22:22 65.7 °F 56.8 °F 29.85 in Calm   1.0 mph 73% 0.00 in
22:27 65.6 °F 56.7 °F 29.85 in Calm   1.0 mph 73% 0.00 in
22:28 65.6 °F 56.7 °F 29.85 in SE 1.0 mph 1.0 mph 73% 0.00 in
22:32 65.3 °F 56.4 °F 29.85 in SE 1.0 mph 1.0 mph 73% 0.00 in
22:34 65.2 °F 56.3 °F 29.85 in SE 1.0 mph 1.0 mph 73% 0.00 in
22:35 65.2 °F 56.7 °F 29.85 in SE 1.0 mph 1.0 mph 74% 0.00 in
22:36 65.1 °F 56.6 °F 29.85 in Calm   1.0 mph 74% 0.00 in
22:37 65.1 °F 56.6 °F 29.85 in Calm   1.0 mph 74% 0.00 in
22:42 64.8 °F 56.3 °F 29.85 in SE 1.0 mph 1.0 mph 74% 0.00 in
22:47 64.6 °F 56.5 °F 29.85 in Calm   1.0 mph 75% 0.00 in
22:53 64.6 °F 56.5 °F 29.85 in Calm   1.0 mph 75% 0.00 in
22:58 64.4 °F 56.3 °F 29.86 in Calm     75% 0.00 in
23:03 64.3 °F 56.6 °F 29.86 in SE 1.0 mph 1.0 mph 76% 0.00 in
23:08 64.2 °F 56.5 °F 29.85 in SE 1.0 mph 1.0 mph 76% 0.00 in
23:13 64.0 °F 56.7 °F 29.85 in SE 1.0 mph 2.0 mph 77% 0.00 in
23:18 63.9 °F 56.6 °F 29.85 in SSE 1.0 mph 2.0 mph 77% 0.00 in
23:23 63.9 °F 56.6 °F 29.86 in SSE 1.0 mph 1.0 mph 77% 0.00 in
23:28 64.0 °F 56.7 °F 29.86 in SE 1.0 mph 1.0 mph 77% 0.00 in
23:29 64.0 °F 56.7 °F 29.86 in SE 1.0 mph 1.0 mph 77% 0.00 in
23:34 63.9 °F 56.6 °F 29.86 in Calm   1.0 mph 77% 0.00 in
23:36 63.9 °F 56.6 °F 29.86 in SE 1.0 mph 2.0 mph 77% 0.00 in
23:41 63.8 °F 56.5 °F 29.86 in SE 1.0 mph 1.0 mph 77% 0.00 in
23:46 63.8 °F 56.5 °F 29.86 in SE 1.0 mph 1.0 mph 77% 0.00 in
23:52 63.8 °F 56.5 °F 29.87 in Calm   1.0 mph 77% 0.00 in
23:53 63.8 °F 56.5 °F 29.86 in Calm   1.0 mph 77% 0.00 in
23:58 63.8 °F 56.8 °F 29.87 in SSE 1.0 mph 1.0 mph 78% 0.00 in
23:59 63.8 °F 56.8 °F 29.87 in Calm   1.0 mph 78% 0.00 in
Compliments of Weather Underground